Time;durP1;ratioP1;P1;durP2;ratioP2;P2;SDS_P1;SDS_P2;PMS_P1;PMS_P2;Temp;Humidity;BMP_temperature;BMP_pressure;BME280_temperature;BME280_humidity;BME280_pressure;Samples;Min_cycle;Max_cycle;Signal;HPM_P1;HPM_P2
2022/03/25 00:02:17;;;;;;;73.50;44.43;;;;;;;;;;7333988;19;153658;-13
2022/03/25 00:04:49;;;;;;;74.82;44.78;;;;;;;;;;7331541;19;161939;-13
2022/03/25 00:07:20;;;;;;;74.05;45.30;;;;;;;;;;7331371;19;162513;-13
2022/03/25 00:09:52;;;;;;;76.55;46.20;;;;;;;;;;7331914;19;153982;-14
2022/03/25 00:12:23;;;;;;;76.07;44.78;;;;;;;;;;7331763;19;153669;-13
2022/03/25 00:14:57;;;;;;;76.75;46.55;;;;;;;;;;7331339;19;161902;-14
2022/03/25 00:17:28;;;;;;;77.53;46.70;;;;;;;;;;7331010;19;162826;-14
2022/03/25 00:19:59;;;;;;;71.40;44.13;;;;;;;;;;7328803;19;153975;-13
2022/03/25 00:22:31;;;;;;;75.50;45.03;;;;;;;;;;7331192;19;153712;-15
2022/03/25 00:25:04;;;;;;;68.50;42.15;;;;;;;;;;7329661;19;162014;-13
2022/03/25 00:27:36;;;;;;;68.68;42.72;;;;;;;;;;7330867;19;162405;-13
2022/03/25 00:30:12;;;;;;;67.65;42.75;;;;;;;;;;7329986;19;154143;-13
2022/03/25 00:32:44;;;;;;;65.28;41.88;;;;;;;;;;7333692;19;153675;-13
2022/03/25 00:35:17;;;;;;;71.20;42.22;;;;;;;;;;7329583;19;161983;-14
2022/03/25 00:37:48;;;;;;;68.22;44.35;;;;;;;;;;7330646;19;162376;-15
2022/03/25 00:40:19;;;;;;;70.78;42.17;;;;;;;;;;7331910;19;154285;-13
2022/03/25 00:42:51;;;;;;;38.83;23.55;;;;;;;;;;7330347;19;154346;-13
2022/03/25 00:45:26;;;;;;;33.30;21.52;;;;;;;;;;7330428;19;161843;-13
2022/03/25 00:47:58;;;;;;;36.13;23.17;;;;;;;;;;7330391;19;162544;-15
2022/03/25 00:50:30;;;;;;;39.78;24.63;;;;;;;;;;7330843;19;154827;-14
2022/03/25 00:53:01;;;;;;;40.10;25.70;;;;;;;;;;7329274;19;153736;-14
2022/03/25 00:55:32;;;;;;;41.63;24.75;;;;;;;;;;7330180;19;162184;-13
2022/03/25 13:26:47;;;;;;;5.70;5.20;;;;;;;;;;7369617;19;132523;-14
2022/03/25 13:29:19;;;;;;;5.75;4.80;;;;;;;;;;7364865;19;153499;-15
2022/03/25 13:31:54;;;;;;;6.10;5.50;;;;;;;;;;7368883;19;162869;-15
2022/03/25 13:34:25;;;;;;;5.93;5.32;;;;;;;;;;7363969;19;162546;-14
2022/03/25 13:36:56;;;;;;;6.88;5.60;;;;;;;;;;7364393;19;153937;-14
2022/03/25 13:39:34;;;;;;;6.60;5.30;;;;;;;;;;7364602;19;153592;-15
2022/03/25 13:42:15;;;;;;;5.28;4.80;;;;;;;;;;7364419;19;161951;-15
2022/03/25 13:44:47;;;;;;;5.53;4.95;;;;;;;;;;7364018;19;162610;-15
2022/03/25 13:47:18;;;;;;;4.70;4.38;;;;;;;;;;7364843;19;154146;-14
2022/03/25 13:49:50;;;;;;;5.00;4.50;;;;;;;;;;7364621;19;153586;-14
2022/03/25 13:52:28;;;;;;;5.63;5.03;;;;;;;;;;7363226;19;161850;-14
2022/03/25 13:55:17;;;;;;;4.97;4.47;;;;;;;;;;7363168;19;162488;-15
2022/03/25 13:58:01;;;;;;;5.95;5.00;;;;;;;;;;7364227;19;154166;-13
2022/03/25 14:00:39;;;;;;;5.25;4.72;;;;;;;;;;7364298;19;153542;-14
2022/03/25 14:03:16;;;;;;;6.00;4.53;;;;;;;;;;7363448;19;162113;-13
2022/03/25 14:05:48;;;;;;;5.68;5.10;;;;;;;;;;7363520;19;162410;-13
2022/03/25 14:08:34;;;;;;;5.40;4.60;;;;;;;;;;7363848;19;154050;-13
2022/03/25 14:11:07;;;;;;;5.22;4.72;;;;;;;;;;7363705;19;153649;-14
2022/03/25 14:14:02;;;;;;;5.00;4.50;;;;;;;;;;7363408;19;162026;-15
2022/03/25 14:16:35;;;;;;;6.82;4.60;;;;;;;;;;7359734;19;162628;-14
2022/03/25 14:19:06;;;;;;;4.70;4.30;;;;;;;;;;7363502;19;153726;-14
2022/03/25 14:21:38;;;;;;;4.85;4.43;;;;;;;;;;7363425;19;153537;-14
2022/03/25 14:26:53;;;;;;;6.70;5.63;;;;;;;;;;7344047;19;162536;-15
2022/03/25 14:29:27;;;;;;;7.45;5.93;;;;;;;;;;7337874;19;154103;-14
2022/03/25 14:31:58;;;;;;;5.47;4.90;;;;;;;;;;7334361;19;153573;-15
2022/03/25 14:34:30;;;;;;;5.85;4.95;;;;;;;;;;7337789;19;161776;-16
2022/03/25 14:37:01;;;;;;;7.03;5.10;;;;;;;;;;7331515;19;162156;-14
2022/03/25 14:39:32;;;;;;;6.88;5.38;;;;;;;;;;7334483;19;154122;-15
2022/03/25 14:42:05;;;;;;;8.07;5.32;;;;;;;;;;7336164;19;153640;-15
2022/03/25 14:44:38;;;;;;;;;;;;;;;;;;7334180;19;161832;-16
2022/03/25 14:47:13;;;;;;;6.68;4.93;;;;;;;;;;7333663;19;162536;-14
2022/03/25 14:49:44;;;;;;;6.03;4.82;;;;;;;;;;7333940;19;153914;-15
2022/03/25 14:52:15;;;;;;;5.35;4.88;;;;;;;;;;7333749;19;153598;-16
2022/03/25 14:54:47;;;;;;;5.55;4.28;;;;;;;;;;7332985;19;161932;-14
2022/03/25 14:57:20;;;;;;;10.35;5.55;;;;;;;;;;7330467;19;162343;-14
2022/03/25 14:59:53;;;;;;;6.25;4.53;;;;;;;;;;7333497;19;153680;-16
2022/03/25 15:02:25;;;;;;;5.90;4.57;;;;;;;;;;7333562;19;153595;-15
2022/03/25 15:04:59;;;;;;;5.97;5.20;;;;;;;;;;7333028;19;162496;-14
2022/03/25 15:07:32;;;;;;;9.27;4.95;;;;;;;;;;7333144;19;162351;-15
2022/03/25 15:10:03;;;;;;;6.20;4.47;;;;;;;;;;7333584;19;154054;-15
2022/03/25 15:12:36;;;;;;;7.37;5.43;;;;;;;;;;7333577;19;153547;-16
2022/03/25 15:15:11;;;;;;;6.82;4.53;;;;;;;;;;7332122;19;163133;-15
2022/03/25 15:17:42;;;;;;;6.40;4.65;;;;;;;;;;7332697;19;162580;-16
2022/03/25 15:20:14;;;;;;;5.45;4.65;;;;;;;;;;7332174;19;154136;-15
2022/03/25 15:22:47;;;;;;;4.90;4.32;;;;;;;;;;7332055;19;153712;-16
2022/03/25 15:25:19;;;;;;;8.15;4.57;;;;;;;;;;7331394;19;161919;-16
2022/03/25 15:27:51;;;;;;;;;;;;;;;;;;7331971;19;162602;-15
2022/03/25 15:35:54;;;;;;;6.20;4.70;;;;;;;;;;7331769;19;162043;-13
2022/03/25 15:38:45;;;;;;;5.57;4.38;;;;;;;;;;7329575;19;162459;-15
2022/03/25 15:41:16;;;;;;;5.20;4.35;;;;;;;;;;7332594;19;155451;-14
2022/03/25 15:43:48;;;;;;;4.43;4.00;;;;;;;;;;7330952;19;153567;-14
2022/03/25 15:46:22;;;;;;;4.55;4.15;;;;;;;;;;7331986;19;161788;-16
2022/03/25 15:48:58;;;;;;;4.88;3.92;;;;;;;;;;7332023;19;162402;-15
2022/03/25 15:51:32;;;;;;;6.30;4.50;;;;;;;;;;7331337;19;153948;-15
2022/03/25 15:54:10;;;;;;;5.20;4.18;;;;;;;;;;7332031;19;153605;-13
2022/03/25 15:56:41;;;;;;;5.28;3.97;;;;;;;;;;7330457;19;161838;-15
2022/03/25 15:59:12;;;;;;;5.68;4.13;;;;;;;;;;7330380;19;162620;-13
2022/03/25 16:01:46;;;;;;;5.05;4.43;;;;;;;;;;7331952;19;153950;-15
2022/03/25 16:04:18;;;;;;;4.45;4.05;;;;;;;;;;7332122;19;153793;-14
2022/03/25 16:06:52;;;;;;;4.15;3.80;;;;;;;;;;7330071;19;161870;-14
2022/03/25 16:09:23;;;;;;;4.70;3.45;;;;;;;;;;7331277;19;162778;-18
2022/03/25 16:11:55;;;;;;;6.40;4.35;;;;;;;;;;7331809;19;153920;-15
2022/03/25 16:14:26;;;;;;;5.80;4.53;;;;;;;;;;7331859;19;153653;-14
2022/03/25 16:17:07;;;;;;;7.50;4.45;;;;;;;;;;7329912;19;162068;-14
2022/03/25 16:19:42;;;;;;;4.85;4.07;;;;;;;;;;7331288;19;162542;-16
2022/03/25 16:22:14;;;;;;;7.43;3.95;;;;;;;;;;7331306;19;154051;-15
2022/03/25 16:24:46;;;;;;;5.93;4.05;;;;;;;;;;7330616;19;153606;-14
2022/03/25 16:27:17;;;;;;;7.25;4.03;;;;;;;;;;7330908;19;161965;-14
2022/03/25 16:29:50;;;;;;;5.45;4.28;;;;;;;;;;7330806;19;162397;-16
2022/03/25 16:32:26;;;;;;;4.80;3.75;;;;;;;;;;7331261;19;154079;-15
2022/03/25 16:34:58;;;;;;;4.10;3.70;;;;;;;;;;7331040;19;153582;-15
2022/03/25 16:37:30;;;;;;;3.92;3.53;;;;;;;;;;7328931;19;161845;-15
2022/03/25 16:40:02;;;;;;;4.10;3.70;;;;;;;;;;7330730;19;162593;-15
2022/03/25 16:42:33;;;;;;;4.32;3.67;;;;;;;;;;7330836;19;153995;-16
2022/03/25 16:45:05;;;;;;;4.43;3.75;;;;;;;;;;7330600;19;153533;-14
2022/03/25 16:47:39;;;;;;;4.57;3.65;;;;;;;;;;7330541;19;161717;-15
2022/03/25 16:50:11;;;;;;;4.28;3.88;;;;;;;;;;7329480;19;162456;-13
2022/03/25 16:52:43;;;;;;;6.25;3.97;;;;;;;;;;7330406;19;154147;-14
2022/03/25 16:55:18;;;;;;;5.05;3.63;;;;;;;;;;7330429;19;153632;-15
2022/03/25 16:57:49;;;;;;;4.40;3.35;;;;;;;;;;7328082;19;163280;-15
2022/03/25 17:00:21;;;;;;;5.18;3.58;;;;;;;;;;7328838;19;162481;-15
2022/03/25 17:02:55;;;;;;;3.90;3.50;;;;;;;;;;7330177;19;153937;-17
2022/03/25 17:05:26;;;;;;;4.03;3.60;;;;;;;;;;7330248;19;154027;-16
2022/03/25 17:07:58;;;;;;;4.05;3.65;;;;;;;;;;7329656;19;161957;-16
2022/03/25 17:10:31;;;;;;;4.00;3.70;;;;;;;;;;7329772;19;162362;-15
2022/03/25 17:13:03;;;;;;;5.80;3.65;;;;;;;;;;7329714;19;153987;-14
2022/03/25 17:15:35;;;;;;;4.28;3.38;;;;;;;;;;7329803;19;153771;-16
2022/03/25 17:18:10;;;;;;;4.30;3.33;;;;;;;;;;7327527;19;163018;-16
2022/03/25 17:20:41;;;;;;;5.13;4.05;;;;;;;;;;7329219;19;162456;-15
2022/03/25 17:23:15;;;;;;;3.95;3.50;;;;;;;;;;7329601;19;154039;-13
2022/03/25 17:25:48;;;;;;;5.03;3.65;;;;;;;;;;7327248;19;153604;-14
2022/03/25 17:28:19;;;;;;;4.32;3.45;;;;;;;;;;7329288;19;161833;-15
2022/03/25 17:30:53;;;;;;;5.53;3.65;;;;;;;;;;7329028;19;162399;-16
2022/03/25 17:33:30;;;;;;;4.28;3.35;;;;;;;;;;7329312;19;153980;-14
2022/03/25 17:36:02;;;;;;;4.00;3.15;;;;;;;;;;7329178;19;154009;-15
2022/03/25 17:38:34;;;;;;;6.68;3.65;;;;;;;;;;7326685;19;161853;-14
2022/03/25 17:41:06;;;;;;;5.40;3.35;;;;;;;;;;7328674;19;162507;-13
2022/03/25 17:43:38;;;;;;;5.45;3.42;;;;;;;;;;7328870;19;154148;-15
2022/03/25 17:46:11;;;;;;;4.50;3.95;;;;;;;;;;7328846;19;153613;-14
2022/03/25 17:48:46;;;;;;;;;;;;;;;;;;7328200;19;161940;-15
2022/03/25 17:51:18;;;;;;;4.03;3.10;;;;;;;;;;7328420;19;162676;-14
2022/03/25 17:53:49;;;;;;;7.75;3.15;;;;;;;;;;7328777;19;154173;-14
2022/03/25 17:56:22;;;;;;;3.17;2.90;;;;;;;;;;7328387;19;153516;-14
2022/03/25 17:58:53;;;;;;;4.45;3.50;;;;;;;;;;7325329;19;162354;-15
2022/03/25 18:01:25;;;;;;;5.50;2.92;;;;;;;;;;7329046;19;162341;-16
2022/03/25 18:03:58;;;;;;;4.53;3.08;;;;;;;;;;7334985;19;154260;-15
2022/03/25 18:06:30;;;;;;;4.22;3.25;;;;;;;;;;7334434;19;153485;-15
2022/03/25 18:09:01;;;;;;;5.10;3.60;;;;;;;;;;7334189;19;161965;-16
2022/03/25 18:11:32;;;;;;;3.45;3.00;;;;;;;;;;7333431;19;162341;-15
2022/03/25 18:14:04;;;;;;;3.67;3.28;;;;;;;;;;7334306;19;154007;-16
2022/03/25 18:16:36;;;;;;;3.30;3.00;;;;;;;;;;7334365;19;153508;-14
2022/03/25 18:19:09;;;;;;;3.88;3.05;;;;;;;;;;7332426;19;161865;-15
2022/03/25 18:21:41;;;;;;;5.50;3.30;;;;;;;;;;7334373;19;162603;-15
2022/03/25 18:24:12;;;;;;;5.35;2.85;;;;;;;;;;7334712;19;154037;-14
2022/03/25 18:26:44;;;;;;;5.25;3.25;;;;;;;;;;7334658;19;153550;-15
2022/03/25 18:29:19;;;;;;;4.60;3.10;;;;;;;;;;7334075;19;161813;-14
2022/03/25 18:31:54;;;;;;;6.63;3.42;;;;;;;;;;7334222;19;162427;-16
2022/03/25 18:34:29;;;;;;;3.72;2.63;;;;;;;;;;7334458;19;154759;-15
2022/03/25 18:37:00;;;;;;;4.90;3.20;;;;;;;;;;7333907;19;153605;-14
2022/03/25 18:39:32;;;;;;;4.40;2.80;;;;;;;;;;7331463;19;161933;-16
2022/03/25 18:42:03;;;;;;;4.72;2.80;;;;;;;;;;7333832;19;162307;-16
2022/03/25 18:44:35;;;;;;;4.57;3.25;;;;;;;;;;7334171;19;153922;-15
2022/03/25 18:47:08;;;;;;;4.00;3.53;;;;;;;;;;7332901;19;153812;-16
2022/03/25 18:49:42;;;;;;;4.77;3.10;;;;;;;;;;7333668;19;161891;-15
2022/03/25 18:52:14;;;;;;;4.32;2.67;;;;;;;;;;7333455;19;162454;-16
2022/03/25 18:54:45;;;;;;;3.05;2.78;;;;;;;;;;7333963;19;153966;-15
2022/03/25 18:57:16;;;;;;;4.88;2.97;;;;;;;;;;7333867;19;153621;-15
2022/03/25 18:59:48;;;;;;;3.10;2.60;;;;;;;;;;7331022;19;161811;-15
2022/03/25 19:02:23;;;;;;;4.97;3.28;;;;;;;;;;7333512;19;162575;-16
2022/03/25 19:04:58;;;;;;;3.72;3.10;;;;;;;;;;7333839;19;154015;-16
2022/03/25 19:07:29;;;;;;;4.32;2.65;;;;;;;;;;7333698;19;153541;-15
2022/03/25 19:10:00;;;;;;;3.08;2.75;;;;;;;;;;7332950;19;162006;-14
2022/03/25 19:12:31;;;;;;;3.33;2.78;;;;;;;;;;7332626;19;162439;-14
2022/03/25 19:15:03;;;;;;;4.72;3.35;;;;;;;;;;7333225;19;154078;-14
2022/03/25 19:17:34;;;;;;;5.97;3.10;;;;;;;;;;7333373;19;153660;-15
2022/03/25 19:20:15;;;;;;;4.80;2.92;;;;;;;;;;7330528;19;161940;-15
2022/03/25 19:22:52;;;;;;;4.38;3.08;;;;;;;;;;7332737;19;162135;-14
2022/03/25 19:25:24;;;;;;;5.15;4.00;;;;;;;;;;7331618;19;153994;-15
2022/03/25 19:27:56;;;;;;;4.03;3.53;;;;;;;;;;7332908;19;153593;-15
2022/03/25 19:30:28;;;;;;;4.25;3.00;;;;;;;;;;7331768;19;161878;-15
2022/03/25 19:32:59;;;;;;;5.20;3.50;;;;;;;;;;7332527;19;162336;-15
2022/03/25 19:35:34;;;;;;;4.30;3.40;;;;;;;;;;7332839;19;154047;-15
2022/03/25 19:38:06;;;;;;;6.47;3.50;;;;;;;;;;7332736;19;153570;-14
2022/03/25 19:40:37;;;;;;;6.68;3.42;;;;;;;;;;7328613;19;161999;-14
2022/03/25 19:43:09;;;;;;;3.90;3.43;;;;;;;;;;7332263;19;162488;-14
2022/03/25 19:45:41;;;;;;;4.82;3.45;;;;;;;;;;7332757;19;153990;-14
2022/03/25 19:48:12;;;;;;;6.10;3.55;;;;;;;;;;7332123;19;153692;-14
2022/03/25 19:50:49;;;;;;;5.43;3.58;;;;;;;;;;7331848;19;162064;-16
2022/03/25 19:53:21;;;;;;;6.32;4.10;;;;;;;;;;7334647;19;162753;-14
2022/03/25 19:55:53;;;;;;;6.30;3.70;;;;;;;;;;7335078;19;153981;-15
2022/03/25 19:58:25;;;;;;;6.43;3.85;;;;;;;;;;7332529;19;153583;-16
2022/03/25 20:00:57;;;;;;;8.00;3.90;;;;;;;;;;7332020;19;162153;-14
2022/03/25 20:03:28;;;;;;;6.53;4.15;;;;;;;;;;7331914;19;162462;-13
2022/03/25 20:06:03;;;;;;;4.30;3.50;;;;;;;;;;7332142;19;153956;-14
2022/03/25 20:08:34;;;;;;;6.30;4.57;;;;;;;;;;7332478;19;153564;-15
2022/03/25 20:11:09;;;;;;;8.00;4.60;;;;;;;;;;7335370;19;161764;-13
2022/03/25 20:13:40;;;;;;;8.68;4.60;;;;;;;;;;7335191;19;162528;-14
2022/03/25 20:16:13;;;;;;;6.57;4.50;;;;;;;;;;7331810;19;154129;-13
2022/03/25 20:18:46;;;;;;;8.25;4.47;;;;;;;;;;7333371;19;153478;-15
2022/03/25 20:21:19;;;;;;;11.97;4.83;;;;;;;;;;7331031;19;162187;-13
2022/03/25 20:23:51;;;;;;;10.93;5.85;;;;;;;;;;7328190;19;162461;-13
2022/03/25 20:26:22;;;;;;;6.78;5.20;;;;;;;;;;7325928;19;154224;-13
2022/03/25 20:28:58;;;;;;;5.93;4.30;;;;;;;;;;7329156;19;153581;-14
2022/03/25 20:31:31;;;;;;;9.77;5.28;;;;;;;;;;7330270;19;161819;-14
2022/03/25 20:34:02;;;;;;;9.48;5.38;;;;;;;;;;7330235;19;162427;-14
2022/03/25 20:36:36;;;;;;;11.07;5.70;;;;;;;;;;7330760;19;154007;-13
2022/03/25 20:39:08;;;;;;;9.80;5.43;;;;;;;;;;7332591;19;154014;-15
2022/03/25 20:41:40;;;;;;;8.55;5.40;;;;;;;;;;7332273;19;161812;-14
2022/03/25 20:44:12;;;;;;;10.40;6.15;;;;;;;;;;7332157;19;162485;-14
2022/03/25 20:46:45;;;;;;;11.52;5.55;;;;;;;;;;7333572;19;154095;-16
2022/03/25 20:49:17;;;;;;;8.88;5.07;;;;;;;;;;7333916;19;153639;-14
2022/03/25 20:51:51;;;;;;;9.65;5.38;;;;;;;;;;7332535;19;161931;-15
2022/03/25 20:54:22;;;;;;;8.77;5.72;;;;;;;;;;7329447;19;162437;-14
2022/03/25 20:56:54;;;;;;;7.97;5.35;;;;;;;;;;7330524;19;154229;-16
2022/03/25 20:59:25;;;;;;;8.82;5.25;;;;;;;;;;7329997;19;153722;-16
2022/03/25 21:01:57;;;;;;;12.73;5.47;;;;;;;;;;7330095;19;161929;-16
2022/03/25 21:04:28;;;;;;;6.80;4.85;;;;;;;;;;7329943;19;162423;-15
2022/03/25 21:07:03;;;;;;;7.00;4.55;;;;;;;;;;7331552;19;154285;-15
2022/03/25 21:09:35;;;;;;;8.88;4.93;;;;;;;;;;7331457;19;153722;-14
2022/03/25 21:12:08;;;;;;;8.98;4.53;;;;;;;;;;7332934;19;161881;-16
2022/03/25 21:14:40;;;;;;;9.63;5.75;;;;;;;;;;7332022;19;162483;-16
2022/03/25 21:17:11;;;;;;;9.43;5.10;;;;;;;;;;7332902;19;153949;-16
2022/03/25 21:19:44;;;;;;;8.30;4.53;;;;;;;;;;7331852;19;153765;-15
2022/03/25 21:22:18;;;;;;;7.95;4.85;;;;;;;;;;7330997;19;161924;-14
2022/03/25 21:24:53;;;;;;;8.73;5.43;;;;;;;;;;7331899;19;162626;-15
2022/03/25 21:27:25;;;;;;;8.10;4.93;;;;;;;;;;7332575;19;153948;-16
2022/03/25 21:29:56;;;;;;;8.13;4.68;;;;;;;;;;7332901;19;153741;-15
2022/03/25 21:32:30;;;;;;;8.00;4.43;;;;;;;;;;7330086;19;161978;-16
2022/03/25 21:35:01;;;;;;;8.55;4.95;;;;;;;;;;7329699;19;162562;-14
2022/03/25 21:37:35;;;;;;;7.28;4.53;;;;;;;;;;7337635;19;154355;-14
2022/03/25 21:40:09;;;;;;;6.20;4.75;;;;;;;;;;7338910;19;153758;-15
2022/03/25 21:42:42;;;;;;;6.55;4.85;;;;;;;;;;7337214;19;162055;-16
2022/03/25 21:45:13;;;;;;;9.60;4.88;;;;;;;;;;7336616;19;162595;-15
2022/03/25 21:47:45;;;;;;;6.95;4.70;;;;;;;;;;7338865;19;154052;-14
2022/03/25 21:50:16;;;;;;;9.13;4.78;;;;;;;;;;7339545;19;153519;-15
2022/03/25 21:52:55;;;;;;;7.38;5.00;;;;;;;;;;7337656;19;162008;-17
2022/03/25 21:55:28;;;;;;;6.78;4.50;;;;;;;;;;7339269;19;162565;-15
2022/03/25 21:57:59;;;;;;;9.20;4.78;;;;;;;;;;7338805;19;154029;-13
2022/03/25 22:00:32;;;;;;;7.57;4.45;;;;;;;;;;7338616;19;153647;-14
2022/03/25 22:03:07;;;;;;;9.98;5.30;;;;;;;;;;7338243;19;161871;-15
2022/03/25 22:05:41;;;;;;;9.20;4.35;;;;;;;;;;7336612;19;162499;-14
2022/03/25 22:08:15;;;;;;;7.97;4.33;;;;;;;;;;7338558;19;153767;-19
2022/03/25 22:10:46;;;;;;;5.53;4.30;;;;;;;;;;7338698;19;153501;-15
2022/03/25 22:13:17;;;;;;;6.10;4.28;;;;;;;;;;7338271;19;162080;-14
2022/03/25 22:15:51;;;;;;;5.75;4.00;;;;;;;;;;7338144;19;162501;-14
2022/03/25 22:18:22;;;;;;;6.05;3.97;;;;;;;;;;7338055;19;153997;-16
2022/03/25 22:20:56;;;;;;;8.82;5.03;;;;;;;;;;7337799;19;153649;-15
2022/03/25 22:23:33;;;;;;;4.45;4.05;;;;;;;;;;7337869;19;162004;-15
2022/03/25 22:26:04;;;;;;;5.15;4.65;;;;;;;;;;7335872;19;162538;-15
2022/03/25 22:28:36;;;;;;;4.43;3.95;;;;;;;;;;7338397;19;154219;-16
2022/03/25 22:31:07;;;;;;;4.63;4.03;;;;;;;;;;7337335;19;153478;-15
2022/03/25 22:33:38;;;;;;;4.90;3.80;;;;;;;;;;7337769;19;161772;-16
2022/03/25 22:36:10;;;;;;;5.70;3.92;;;;;;;;;;7336132;19;162610;-16
2022/03/25 22:38:44;;;;;;;6.20;4.70;;;;;;;;;;7336863;19;153942;-15
2022/03/25 22:41:15;;;;;;;5.35;4.38;;;;;;;;;;7335010;19;153541;-15
2022/03/25 22:43:46;;;;;;;7.60;4.40;;;;;;;;;;7337058;19;161948;-16
2022/03/25 22:46:18;;;;;;;6.40;4.50;;;;;;;;;;7337269;19;162435;-15
2022/03/25 22:48:51;;;;;;;7.47;4.63;;;;;;;;;;7336392;19;154021;-15
2022/03/25 22:51:22;;;;;;;;;;;;;;;;;;7338204;19;153615;-17
2022/03/25 22:53:56;;;;;;;5.45;4.10;;;;;;;;;;7336965;19;162093;-14
2022/03/25 22:56:29;;;;;;;12.02;4.55;;;;;;;;;;7336740;19;162118;-15
2022/03/25 22:59:02;;;;;;;6.20;4.50;;;;;;;;;;7336788;19;154151;-14
2022/03/25 23:01:38;;;;;;;5.53;4.20;;;;;;;;;;7335142;19;154013;-15
2022/03/25 23:04:13;;;;;;;6.88;4.25;;;;;;;;;;7336384;19;161890;-15
2022/03/25 23:06:44;;;;;;;7.03;4.30;;;;;;;;;;7336227;19;162433;-17
2022/03/25 23:09:19;;;;;;;5.85;4.05;;;;;;;;;;7336656;19;153979;-15
2022/03/25 23:11:50;;;;;;;4.72;3.92;;;;;;;;;;7337544;19;153580;-15
2022/03/25 23:14:22;;;;;;;5.13;3.95;;;;;;;;;;7336460;19;161878;-15
2022/03/25 23:16:54;;;;;;;5.43;3.90;;;;;;;;;;7335760;19;162995;-16
2022/03/25 23:19:26;;;;;;;7.30;3.95;;;;;;;;;;7336515;19;154527;-16
2022/03/25 23:21:57;;;;;;;7.72;3.70;;;;;;;;;;7333759;19;153501;-15
2022/03/25 23:24:32;;;;;;;4.22;3.80;;;;;;;;;;7336213;19;161878;-16
2022/03/25 23:27:03;;;;;;;10.07;4.32;;;;;;;;;;7332798;19;162602;-14
2022/03/25 23:29:34;;;;;;;6.55;4.43;;;;;;;;;;7333076;19;154177;-15
2022/03/25 23:32:07;;;;;;;5.75;3.47;;;;;;;;;;7331742;19;153542;-15
2022/03/25 23:34:39;;;;;;;6.13;4.20;;;;;;;;;;7332491;19;161770;-15
2022/03/25 23:37:11;;;;;;;4.65;3.88;;;;;;;;;;7331267;19;162463;-15
2022/03/25 23:39:45;;;;;;;5.20;3.78;;;;;;;;;;7332818;19;154195;-12
2022/03/25 23:42:17;;;;;;;3.92;3.53;;;;;;;;;;7331226;19;153534;-13
2022/03/25 23:44:48;;;;;;;5.25;4.18;;;;;;;;;;7332132;19;161865;-13
2022/03/25 23:47:20;;;;;;;3.80;3.17;;;;;;;;;;7332123;19;162579;-14
2022/03/25 23:49:52;;;;;;;4.55;3.58;;;;;;;;;;7332547;19;154203;-14
2022/03/25 23:52:25;;;;;;;6.28;3.53;;;;;;;;;;7331232;19;153655;-13
2022/03/25 23:55:10;;;;;;;4.53;3.75;;;;;;;;;;7331731;19;161836;-15
2022/03/25 23:57:41;;;;;;;4.30;3.47;;;;;;;;;;7331766;19;162374;-15
